Sao Francisco do Conde, Brazil
Current Conditions -  °F | °C
As of 8:00 PM on Wednesday 22 Oct 2014 (Local Time) from SBSV Reporting Station
Scattered Clouds Scattered Clouds  
Wind Chill: 77°   Ceiling: Unl
Heat Index: 79°   Visibility: 6mi
Dew Point: 61°   Wind: 6mph
Humidity: 57%   Direction: 150°SSE
Pressure: 30.03"   Gusts: NA
Location:  12.63°S, 38.68°W
Report Text: SBSV 222300Z 15005KT 9999 SCT017 25/16 Q1017
Loading
Personal Weather Stations






























Interactive Weather Map
Tropical Storm Tracking
New forecast layout! Learn more

10-Day Weather Forecast

Advertisements
Track Severe Weather on mobile